createdAt,value
2022-10-22T00:00:48.103Z,12.70
2022-10-22T00:03:15.591Z,13.07
2022-10-22T00:05:43.762Z,15.83
2022-10-22T00:08:12.504Z,11.80
2022-10-22T00:10:40.046Z,12.60
2022-10-22T00:13:07.743Z,16.93
2022-10-22T00:15:35.202Z,14.10
2022-10-22T00:18:02.685Z,10.70
2022-10-22T00:20:30.177Z,14.33
2022-10-22T00:22:57.734Z,14.03
2022-10-22T00:25:26.505Z,13.93
2022-10-22T00:27:53.967Z,13.67
2022-10-22T00:30:21.643Z,13.87
2022-10-22T00:32:49.245Z,13.10
2022-10-22T00:35:17.276Z,13.37
2022-10-22T00:37:44.930Z,14.07
2022-10-22T00:40:13.497Z,10.57
2022-10-22T00:42:42.786Z,12.50
2022-10-22T00:45:23.527Z,13.53
2022-10-22T00:47:56.813Z,10.47
2022-10-22T00:50:28.869Z,14.23
2022-10-22T00:52:58.371Z,13.00
2022-10-22T00:55:27.808Z,16.53
2022-10-22T00:57:58.953Z,14.17
2022-10-22T01:00:27.150Z,11.50
2022-10-22T01:02:55.739Z,13.83
2022-10-22T01:05:24.030Z,11.77
2022-10-22T01:07:54.083Z,13.80
2022-10-22T01:10:44.834Z,11.93
2022-10-22T01:13:24.096Z,12.40
2022-10-22T01:16:00.332Z,15.70
2022-10-22T01:18:36.830Z,15.47
2022-10-22T01:21:15.217Z,12.93
2022-10-22T01:24:05.840Z,13.27
2022-10-22T01:26:44.981Z,12.47
2022-10-22T01:29:19.925Z,11.90
2022-10-22T01:31:52.632Z,12.93
2022-10-22T01:34:21.429Z,12.63
2022-10-22T01:36:52.305Z,13.53
2022-10-22T01:39:21.307Z,12.47
2022-10-22T01:41:48.980Z,10.77
2022-10-22T01:44:29.460Z,13.03
2022-10-22T01:47:08.630Z,13.00
2022-10-22T01:50:05.489Z,15.10
2022-10-22T01:52:50.282Z,12.73
2022-10-22T01:55:27.040Z,12.37
2022-10-22T01:58:08.007Z,14.00
2022-10-22T02:00:39.488Z,14.13
2022-10-22T02:03:17.419Z,14.13
2022-10-22T02:05:51.577Z,14.20
2022-10-22T02:08:21.826Z,13.10
2022-10-22T02:10:51.567Z,13.20
2022-10-22T02:13:24.183Z,13.73
2022-10-22T02:15:54.324Z,12.67
2022-10-22T02:18:26.905Z,14.30
2022-10-22T02:20:54.974Z,12.17
2022-10-22T02:23:23.325Z,12.17
2022-10-22T02:25:56.868Z,12.77
2022-10-22T02:28:28.301Z,12.80
2022-10-22T02:31:07.285Z,13.90
2022-10-22T02:33:39.606Z,15.53
2022-10-22T02:36:09.315Z,15.17
2022-10-22T02:38:37.981Z,11.70
2022-10-22T02:41:06.041Z,13.03
2022-10-22T02:43:41.401Z,16.47
2022-10-22T02:46:10.939Z,13.33
2022-10-22T02:48:38.859Z,12.03
2022-10-22T02:51:06.948Z,13.57
2022-10-22T02:53:34.654Z,13.90
2022-10-22T02:56:02.392Z,12.60
2022-10-22T02:58:30.124Z,12.90
2022-10-22T03:00:57.817Z,13.60
2022-10-22T03:03:27.146Z,14.13
2022-10-22T03:05:54.782Z,13.17
2022-10-22T03:08:22.539Z,15.07
2022-10-22T03:10:50.326Z,13.03
2022-10-22T03:13:18.057Z,11.43
2022-10-22T03:15:45.822Z,14.00
2022-10-22T03:18:13.900Z,14.67
2022-10-22T03:20:42.993Z,11.67
2022-10-22T03:23:11.175Z,13.37
2022-10-22T03:25:44.045Z,12.60
2022-10-22T03:28:14.471Z,15.93
2022-10-22T03:30:42.164Z,12.50
2022-10-22T03:33:09.788Z,12.17
2022-10-22T03:35:43.203Z,18.30
2022-10-22T03:38:13.079Z,13.97
2022-10-22T03:40:41.583Z,11.77
2022-10-22T03:43:09.647Z,11.57
2022-10-22T03:48:06.961Z,11.93
2022-10-22T03:50:34.801Z,12.53
2022-10-22T03:53:02.675Z,15.77
2022-10-22T03:55:31.766Z,14.17
2022-10-22T03:57:59.464Z,12.97
2022-10-22T04:00:27.198Z,12.53
2022-10-22T04:02:54.942Z,12.07
2022-10-22T04:05:22.715Z,13.70
2022-10-22T04:07:50.490Z,11.17
2022-10-22T04:10:18.410Z,13.20
2022-10-22T04:12:49.707Z,14.73
2022-10-22T04:15:17.946Z,12.83
2022-10-22T04:17:45.598Z,14.77
2022-10-22T04:20:13.335Z,12.47
2022-10-22T04:22:40.920Z,11.13
2022-10-22T04:25:09.089Z,11.93
2022-10-22T04:27:37.286Z,18.20
2022-10-22T04:30:07.743Z,13.43
2022-10-22T04:32:35.596Z,13.13
2022-10-22T04:35:03.426Z,12.57
2022-10-22T04:37:32.985Z,14.73
2022-10-22T04:40:00.761Z,15.50
2022-10-22T04:42:28.397Z,11.83
2022-10-22T04:44:56.074Z,13.77
2022-10-22T04:47:25.146Z,14.90
2022-10-22T04:49:52.868Z,14.27
2022-10-22T04:52:20.716Z,11.63
2022-10-22T04:54:48.601Z,13.97
2022-10-22T04:57:16.370Z,16.27
2022-10-22T04:59:44.085Z,14.77
2022-10-22T05:08:32.629Z,14.73
2022-10-22T05:11:06.245Z,12.20
2022-10-22T05:13:48.587Z,18.07
2022-10-22T05:16:16.918Z,14.33
2022-10-22T05:18:45.502Z,15.50
2022-10-22T05:21:16.244Z,11.83
2022-10-22T05:23:46.289Z,17.20
2022-10-22T05:26:16.103Z,12.07
2022-10-22T05:28:44.582Z,13.47
2022-10-22T05:31:14.713Z,12.33
2022-10-22T05:33:43.755Z,13.87
2022-10-22T05:36:14.567Z,11.93
2022-10-22T05:38:42.302Z,11.93
2022-10-22T05:41:13.529Z,12.90
2022-10-22T05:43:41.193Z,15.77
2022-10-22T05:46:11.887Z,10.57
2022-10-22T05:48:40.188Z,14.70
2022-10-22T05:51:10.270Z,13.73
2022-10-22T05:53:39.696Z,11.80
2022-10-22T05:56:10.873Z,10.70
2022-10-22T05:58:40.599Z,12.23
2022-10-22T06:01:10.104Z,11.83
2022-10-22T06:03:37.962Z,10.67
2022-10-22T06:06:15.268Z,11.20
2022-10-22T06:08:44.998Z,12.43
2022-10-22T06:11:12.789Z,12.10
2022-10-22T06:13:42.195Z,11.00
2022-10-22T06:16:09.701Z,12.00
2022-10-22T06:18:37.729Z,12.23
2022-10-22T06:21:07.399Z,12.77
2022-10-22T06:23:35.313Z,13.73
2022-10-22T06:26:03.459Z,11.43
2022-10-22T06:28:31.859Z,10.60
2022-10-22T06:31:01.816Z,11.20
2022-10-22T06:33:32.576Z,11.47
2022-10-22T06:36:07.573Z,14.33
2022-10-22T06:38:35.730Z,11.50
2022-10-22T06:41:04.795Z,13.60
2022-10-22T06:43:32.559Z,13.57
2022-10-22T06:46:09.877Z,11.03
2022-10-22T06:48:46.912Z,11.97
2022-10-22T06:51:17.226Z,12.43
2022-10-22T06:53:44.975Z,12.67
2022-10-22T06:56:34.185Z,13.10
2022-10-22T06:59:08.756Z,10.93
2022-10-22T07:01:38.758Z,10.17
2022-10-22T07:04:07.011Z,14.33
2022-10-22T07:06:35.007Z,13.33
2022-10-22T07:09:03.716Z,13.10
2022-10-22T07:11:38.889Z,10.53
2022-10-22T07:14:06.494Z,12.57
2022-10-22T07:16:34.519Z,13.03
2022-10-22T07:19:05.864Z,11.00
2022-10-22T07:21:36.327Z,12.67
2022-10-22T07:24:03.946Z,14.13
2022-10-22T07:26:32.748Z,12.27
2022-10-22T07:29:02.019Z,13.07
2022-10-22T07:31:29.892Z,12.97
2022-10-22T07:33:57.619Z,13.83
2022-10-22T07:36:26.559Z,11.80
2022-10-22T07:38:57.043Z,13.57
2022-10-22T07:41:25.236Z,16.03
2022-10-22T07:43:53.330Z,12.03
2022-10-22T07:46:21.557Z,13.97
2022-10-22T07:48:51.577Z,16.77
2022-10-22T07:51:19.716Z,15.60
2022-10-22T07:53:48.767Z,12.67
2022-10-22T07:56:17.872Z,11.13
2022-10-22T07:58:45.693Z,12.10
2022-10-22T08:01:13.270Z,12.13
2022-10-22T08:03:40.843Z,12.93
2022-10-22T08:06:08.823Z,12.87
2022-10-22T08:08:36.519Z,12.60
2022-10-22T08:11:05.616Z,11.73
2022-10-22T08:13:33.418Z,10.63
2022-10-22T08:16:02.225Z,11.17
2022-10-22T08:18:33.456Z,13.80
2022-10-22T08:21:07.645Z,11.70
2022-10-22T08:23:35.387Z,12.87
2022-10-22T08:26:06.862Z,13.60
2022-10-22T08:28:38.991Z,11.63
2022-10-22T08:34:05.917Z,12.80
2022-10-22T08:36:34.511Z,9.83
2022-10-22T08:39:08.636Z,11.83
2022-10-22T08:41:45.573Z,11.37
2022-10-22T08:44:47.740Z,15.97
2022-10-22T08:47:28.768Z,16.67
2022-10-22T08:49:57.228Z,17.50
2022-10-22T08:52:24.814Z,11.13
2022-10-22T08:54:54.973Z,13.63
2022-10-22T08:57:45.645Z,15.13
2022-10-22T09:00:25.011Z,12.07
2022-10-22T09:03:03.603Z,11.17
2022-10-22T09:05:41.181Z,13.40
2022-10-22T09:08:11.781Z,12.73
2022-10-22T09:10:44.958Z,11.00
2022-10-22T09:13:16.936Z,13.37
2022-10-22T09:15:47.306Z,13.33
2022-10-22T09:18:31.815Z,13.90
2022-10-22T09:21:05.414Z,13.03
2022-10-22T09:23:39.925Z,13.53
2022-10-22T09:26:15.282Z,11.47
2022-10-22T09:28:44.279Z,11.43
2022-10-22T09:31:15.429Z,14.37
2022-10-22T09:33:51.625Z,12.03
2022-10-22T09:36:23.728Z,14.63
2022-10-22T09:38:53.252Z,13.17
2022-10-22T09:41:29.692Z,11.57
2022-10-22T09:43:57.492Z,12.17
2022-10-22T09:46:32.577Z,10.53
2022-10-22T09:49:05.586Z,11.70
2022-10-22T09:51:51.123Z,9.77
2022-10-22T09:54:22.276Z,12.67
2022-10-22T09:56:54.714Z,10.90
2022-10-22T09:59:29.279Z,12.57
2022-10-22T10:02:19.801Z,13.50
2022-10-22T10:04:56.913Z,10.30
2022-10-22T10:07:26.576Z,12.10
2022-10-22T10:09:55.586Z,11.63
2022-10-22T10:12:36.387Z,9.07
2022-10-22T10:15:18.667Z,11.07
2022-10-22T10:17:56.831Z,9.17
2022-10-22T10:20:35.439Z,11.63
2022-10-22T10:23:09.588Z,11.67
2022-10-22T10:25:43.783Z,11.13
2022-10-22T10:28:22.887Z,10.27
2022-10-22T10:30:58.993Z,11.07
2022-10-22T10:33:36.610Z,8.50
2022-10-22T10:36:11.343Z,10.50
2022-10-22T10:38:48.976Z,12.20
2022-10-22T10:41:30.850Z,9.90
2022-10-22T10:44:15.332Z,11.00
2022-10-22T10:46:51.403Z,12.20
2022-10-22T10:49:25.296Z,12.10
2022-10-22T10:52:02.444Z,13.17
2022-10-22T10:54:43.138Z,11.37
2022-10-22T10:57:20.552Z,11.43
2022-10-22T11:00:01.168Z,11.30
2022-10-22T11:02:49.114Z,8.63
2022-10-22T11:05:29.206Z,11.37
2022-10-22T11:08:01.044Z,9.90
2022-10-22T11:10:32.945Z,9.33
2022-10-22T11:13:08.796Z,11.47
2022-10-22T11:15:41.475Z,11.77
2022-10-22T11:18:16.823Z,13.93
2022-10-22T11:21:04.386Z,10.40
2022-10-22T11:23:39.938Z,10.60
2022-10-22T11:26:14.931Z,13.37
2022-10-22T11:28:46.765Z,9.60
2022-10-22T11:31:16.798Z,10.67
2022-10-22T11:33:54.596Z,14.67
2022-10-22T11:39:05.052Z,12.73
2022-10-22T11:41:35.440Z,10.97
2022-10-22T11:44:11.168Z,9.60
2022-10-22T11:46:47.027Z,14.90
2022-10-22T11:49:23.280Z,10.57
2022-10-22T11:51:53.311Z,8.93
2022-10-22T11:54:42.338Z,11.07
2022-10-22T11:57:19.877Z,12.50
2022-10-22T11:59:51.850Z,11.00
2022-10-22T12:02:26.849Z,12.17
2022-10-22T12:04:56.825Z,11.27
2022-10-22T12:07:36.436Z,13.50
2022-10-22T12:10:07.424Z,8.97
2022-10-22T12:12:40.143Z,14.80
2022-10-22T12:15:25.355Z,9.47
2022-10-22T12:18:16.194Z,9.53
2022-10-22T12:20:44.026Z,6.80
2022-10-22T12:23:15.032Z,11.13
2022-10-22T12:25:43.363Z,9.97
2022-10-22T12:28:14.320Z,7.63
2022-10-22T12:30:42.103Z,8.57
2022-10-22T12:33:22.712Z,8.73
2022-10-22T12:35:55.490Z,10.53
2022-10-22T12:38:25.646Z,6.17
2022-10-22T12:40:57.683Z,6.30
2022-10-22T12:43:29.909Z,4.63
2022-10-22T12:46:00.196Z,5.73
2022-10-22T12:48:31.264Z,3.83
2022-10-22T12:51:02.244Z,3.97
2022-10-22T12:53:35.130Z,11.73
2022-10-22T12:56:05.831Z,6.73
2022-10-22T12:58:39.985Z,4.33
2022-10-22T13:01:08.066Z,5.00
2022-10-22T13:03:38.939Z,4.87
2022-10-22T13:06:24.877Z,5.23
2022-10-22T13:09:14.843Z,6.73
2022-10-22T13:11:49.677Z,3.37
2022-10-22T13:14:22.456Z,6.27
2022-10-22T13:17:12.182Z,4.97
2022-10-22T13:19:46.401Z,3.03
2022-10-22T13:22:30.491Z,5.17
2022-10-22T13:25:01.103Z,2.63
2022-10-22T13:27:29.772Z,4.90
2022-10-22T13:29:58.047Z,1.97
2022-10-22T13:32:31.899Z,4.03
2022-10-22T13:35:01.637Z,4.17
2022-10-22T13:37:33.990Z,2.50
2022-10-22T13:40:04.089Z,2.97
2022-10-22T13:42:33.192Z,3.73
2022-10-22T13:45:00.721Z,3.43
2022-10-22T13:47:30.507Z,2.80
2022-10-22T13:50:01.512Z,5.30
2022-10-22T13:52:35.662Z,3.33
2022-10-22T13:55:14.305Z,3.90
2022-10-22T13:57:41.927Z,3.13
2022-10-22T14:00:13.105Z,3.23
2022-10-22T14:02:41.489Z,3.73
2022-10-22T14:05:11.205Z,4.17
2022-10-22T14:07:40.054Z,3.83
2022-10-22T14:10:17.359Z,5.23
2022-10-22T14:12:49.287Z,3.90
2022-10-22T14:15:21.116Z,4.03
2022-10-22T14:17:52.774Z,2.77
2022-10-22T14:20:23.250Z,4.23
2022-10-22T14:22:52.031Z,3.20
2022-10-22T14:25:22.812Z,3.97
2022-10-22T14:27:50.791Z,4.17
2022-10-22T14:30:25.448Z,2.70
2022-10-22T14:32:53.572Z,2.03
2022-10-22T14:35:23.522Z,2.63
2022-10-22T14:37:51.876Z,4.23
2022-10-22T14:40:21.734Z,4.80
2022-10-22T14:42:49.984Z,3.10
2022-10-22T14:45:21.326Z,3.23
2022-10-22T14:47:49.474Z,3.40
2022-10-22T14:50:18.103Z,5.10
2022-10-22T14:52:46.512Z,5.17
2022-10-22T14:55:16.846Z,3.73
2022-10-22T14:57:47.353Z,2.87
2022-10-22T15:00:17.680Z,2.70
2022-10-22T15:02:46.046Z,2.83
2022-10-22T15:05:13.993Z,5.97
2022-10-22T15:07:41.793Z,2.47
2022-10-22T15:10:10.732Z,3.90
2022-10-22T15:12:38.298Z,3.13
2022-10-22T15:15:08.600Z,5.83
2022-10-22T15:17:37.201Z,5.30
2022-10-22T15:20:06.295Z,5.17
2022-10-22T15:22:35.943Z,8.87
2022-10-22T15:25:04.662Z,3.37
2022-10-22T15:27:32.142Z,3.70
2022-10-22T15:29:59.857Z,4.50
2022-10-22T15:32:29.681Z,5.53
2022-10-22T15:34:57.629Z,6.57
2022-10-22T15:37:25.139Z,4.43
2022-10-22T15:39:52.607Z,5.03
2022-10-22T15:42:20.239Z,7.37
2022-10-22T15:44:48.208Z,3.47
2022-10-22T15:47:15.821Z,2.97
2022-10-22T15:49:45.892Z,4.23
2022-10-22T15:52:13.385Z,6.83
2022-10-22T15:54:42.424Z,4.67
2022-10-22T15:57:10.720Z,7.37
2022-10-22T15:59:38.344Z,6.13
2022-10-22T16:02:07.281Z,7.37
2022-10-22T16:04:34.936Z,9.67
2022-10-22T16:07:03.705Z,5.03
2022-10-22T16:09:31.949Z,8.20
2022-10-22T16:11:59.429Z,4.80
2022-10-22T16:14:28.684Z,5.53
2022-10-22T16:16:57.051Z,4.93
2022-10-22T16:19:25.435Z,7.63
2022-10-22T16:21:56.153Z,6.50
2022-10-22T16:24:25.147Z,8.53
2022-10-22T16:26:53.206Z,8.10
2022-10-22T16:29:21.037Z,6.80
2022-10-22T16:31:48.644Z,7.57
2022-10-22T16:34:16.934Z,8.40
2022-10-22T16:36:45.068Z,5.97
2022-10-22T16:39:12.598Z,5.67
2022-10-22T16:41:41.358Z,9.97
2022-10-22T16:44:10.730Z,8.17
2022-10-22T16:46:38.842Z,11.67
2022-10-22T16:49:07.514Z,8.40
2022-10-22T16:51:35.549Z,7.97
2022-10-22T16:54:05.539Z,8.40
2022-10-22T16:56:36.602Z,8.53
2022-10-22T16:59:05.419Z,14.43
2022-10-22T17:01:36.735Z,10.70
2022-10-22T17:04:07.312Z,11.80
2022-10-22T17:06:35.155Z,6.63
2022-10-22T17:09:03.553Z,8.40
2022-10-22T17:11:36.312Z,12.60
2022-10-22T17:14:07.798Z,6.70
2022-10-22T17:16:35.356Z,9.70
2022-10-22T17:19:04.987Z,8.37
2022-10-22T17:21:33.900Z,9.53
2022-10-22T17:24:01.673Z,9.77
2022-10-22T17:26:30.386Z,10.13
2022-10-22T17:28:58.376Z,8.63
2022-10-22T17:31:29.992Z,11.80
2022-10-22T17:33:59.840Z,9.40
2022-10-22T17:36:31.806Z,8.47
2022-10-22T17:39:06.525Z,10.63
2022-10-22T17:41:35.616Z,11.23
2022-10-22T17:44:05.749Z,13.00
2022-10-22T17:46:34.665Z,12.53
2022-10-22T17:49:06.911Z,10.43
2022-10-22T17:51:34.682Z,10.10
2022-10-22T17:54:03.554Z,10.03
2022-10-22T17:56:33.688Z,8.63
2022-10-22T17:59:01.253Z,9.23
2022-10-22T18:01:30.838Z,8.93
2022-10-22T18:04:02.612Z,7.50
2022-10-22T18:06:30.442Z,9.10
2022-10-22T18:08:58.307Z,8.77
2022-10-22T18:11:28.303Z,8.53
2022-10-22T18:13:58.380Z,12.07
2022-10-22T18:16:26.889Z,8.37
2022-10-22T18:18:56.389Z,9.70
2022-10-22T18:21:29.675Z,9.33
2022-10-22T18:24:00.220Z,7.87
2022-10-22T18:26:27.904Z,8.57
2022-10-22T18:28:55.714Z,11.87
2022-10-22T18:31:25.228Z,9.00
2022-10-22T18:36:24.055Z,9.73
2022-10-22T18:38:55.127Z,9.03
2022-10-22T18:41:23.408Z,7.87
2022-10-22T18:43:51.492Z,11.37
2022-10-22T18:46:22.150Z,8.40
2022-10-22T18:48:49.945Z,10.63
2022-10-22T18:51:17.676Z,11.50
2022-10-22T18:53:58.887Z,8.37
2022-10-22T18:56:34.193Z,8.93
2022-10-22T18:59:02.148Z,6.47
2022-10-22T19:01:30.479Z,7.23
2022-10-22T19:03:58.348Z,13.73
2022-10-22T19:06:30.502Z,7.50
2022-10-22T19:09:00.222Z,8.30
2022-10-22T19:11:28.162Z,7.23
2022-10-22T19:13:57.682Z,8.53
2022-10-22T19:16:28.748Z,8.13
2022-10-22T19:19:04.038Z,7.50
2022-10-22T19:21:32.226Z,7.37
2022-10-22T19:24:01.236Z,10.10
2022-10-22T19:26:30.568Z,7.63
2022-10-22T19:29:00.921Z,9.07
2022-10-22T19:31:31.692Z,9.63
2022-10-22T19:34:01.017Z,16.50
2022-10-22T19:36:30.241Z,12.90
2022-10-22T19:39:04.154Z,9.17
2022-10-22T19:41:34.068Z,9.23
2022-10-22T19:44:03.714Z,7.97
2022-10-22T19:46:33.613Z,10.03
2022-10-22T19:49:03.028Z,10.63
2022-10-22T19:51:33.507Z,9.50
2022-10-22T19:54:03.191Z,10.73
2022-10-22T19:56:32.065Z,7.70
2022-10-22T19:59:00.164Z,8.43
2022-10-22T20:01:31.952Z,8.33
2022-10-22T20:04:01.482Z,9.57
2022-10-22T20:06:29.826Z,9.47
2022-10-22T20:08:58.421Z,8.83
2022-10-22T20:11:29.622Z,6.70
2022-10-22T20:13:59.099Z,7.50
2022-10-22T20:16:31.574Z,7.23
2022-10-22T20:19:03.595Z,6.13
2022-10-22T20:21:31.777Z,7.37
2022-10-22T20:24:00.161Z,8.10
2022-10-22T20:26:29.150Z,5.87
2022-10-22T20:28:57.323Z,6.93
2022-10-22T20:31:27.101Z,8.60
2022-10-22T20:33:57.235Z,7.47
2022-10-22T20:36:25.726Z,8.70
2022-10-22T20:38:53.384Z,10.03
2022-10-22T20:41:23.149Z,9.90
2022-10-22T20:43:52.837Z,11.80
2022-10-22T20:46:23.074Z,7.20
2022-10-22T20:48:52.525Z,9.57
2022-10-22T20:51:21.950Z,8.57
2022-10-22T20:53:50.218Z,9.23
2022-10-22T20:56:18.747Z,7.23
2022-10-22T20:58:48.496Z,7.53
2022-10-22T21:01:21.507Z,11.93
2022-10-22T21:03:50.786Z,10.07
2022-10-22T21:06:20.871Z,11.97
2022-10-22T21:08:49.799Z,9.57
2022-10-22T21:11:17.462Z,6.20
2022-10-22T21:13:45.458Z,11.13
2022-10-22T21:16:14.512Z,6.67
2022-10-22T21:18:42.008Z,6.70
2022-10-22T21:21:10.561Z,5.93
2022-10-22T21:23:38.074Z,5.90
2022-10-22T21:26:07.628Z,5.07
2022-10-22T21:28:36.054Z,5.53
2022-10-22T21:31:04.792Z,5.70
2022-10-22T21:33:32.645Z,6.50
2022-10-22T21:36:00.281Z,6.00
2022-10-22T21:38:27.842Z,6.30
2022-10-22T21:40:56.639Z,4.80
2022-10-22T21:43:25.400Z,5.90
2022-10-22T21:45:52.869Z,7.43
2022-10-22T21:48:20.346Z,5.57
2022-10-22T21:50:49.792Z,5.13
2022-10-22T21:53:17.198Z,5.83
2022-10-22T21:55:44.635Z,5.80
2022-10-22T21:58:12.060Z,5.83
2022-10-22T22:00:40.877Z,7.40
2022-10-22T22:03:08.456Z,5.63
2022-10-22T22:05:36.145Z,5.00
2022-10-22T22:08:03.684Z,29.57
2022-10-22T22:10:31.146Z,5.07
2022-10-22T22:12:58.746Z,5.70
2022-10-22T22:15:26.212Z,7.00
2022-10-22T22:17:54.994Z,7.37
2022-10-22T22:20:22.469Z,8.97
2022-10-22T22:22:50.044Z,5.37
2022-10-22T22:25:17.688Z,9.40
2022-10-22T22:27:45.291Z,8.90
2022-10-22T22:30:13.265Z,4.60
2022-10-22T22:32:42.408Z,6.40
2022-10-22T22:35:11.759Z,10.93
2022-10-22T22:37:39.360Z,4.93
2022-10-22T22:40:08.090Z,9.93
2022-10-22T22:42:35.577Z,8.40
2022-10-22T22:45:03.006Z,3.87
2022-10-22T22:47:30.860Z,6.40
2022-10-22T22:49:58.321Z,4.50
2022-10-22T22:52:27.066Z,5.23
2022-10-22T22:54:54.563Z,5.07
2022-10-22T22:57:21.997Z,5.67
2022-10-22T22:59:51.172Z,6.27
2022-10-22T23:02:18.625Z,8.13
2022-10-22T23:04:46.570Z,8.37
2022-10-22T23:07:14.071Z,5.17
2022-10-22T23:09:42.950Z,6.87
2022-10-22T23:12:10.554Z,6.17
2022-10-22T23:14:37.985Z,6.10
2022-10-22T23:17:05.393Z,10.03
2022-10-22T23:19:32.891Z,7.50
2022-10-22T23:22:00.875Z,9.03
2022-10-22T23:24:30.310Z,10.37
2022-10-22T23:27:02.790Z,7.10
2022-10-22T23:29:32.353Z,5.23
2022-10-22T23:32:02.397Z,6.83
2022-10-22T23:34:31.892Z,9.37
2022-10-22T23:37:00.467Z,8.37
2022-10-22T23:39:29.511Z,6.63
2022-10-22T23:41:57.138Z,5.27
2022-10-22T23:44:26.609Z,6.60
2022-10-22T23:46:55.137Z,6.33
2022-10-22T23:49:22.600Z,7.60
2022-10-22T23:51:49.991Z,5.03
2022-10-22T23:54:17.793Z,4.43
2022-10-22T23:56:45.383Z,6.97
